Time;durP1;ratioP1;P1;durP2;ratioP2;P2;SDS_P1;SDS_P2;PMS_P1;PMS_P2;Temp;Humidity;BMP_temperature;BMP_pressure;BME280_temperature;BME280_humidity;BME280_pressure;Samples;Min_cycle;Max_cycle;Signal;HPM_P1;HPM_P2
2023/05/07 00:01:37;;;;;;;48.03;30.02;;;;;;;-146.27;100.00;82601.16;5049177;28;20484;-69
2023/05/07 00:04:03;;;;;;;51.45;29.17;;;;;;;-146.27;100.00;82623.25;5060346;28;20029;-69
2023/05/07 00:06:29;;;;;;;50.25;30.70;;;;;;;-146.27;100.00;82641.31;5050040;28;20028;-70
2023/05/07 00:08:56;;;;;;;48.65;29.13;;;;;;;-146.27;100.00;82629.28;5056123;28;20045;-69
2023/05/07 00:11:21;;;;;;;56.30;30.13;;;;;;;-146.27;100.00;82633.28;5052789;28;20035;-70
2023/05/07 00:13:47;;;;;;;47.38;30.02;;;;;;;-146.27;100.00;82623.25;5050752;28;20504;-68
2023/05/07 00:16:13;;;;;;;46.28;29.17;;;;;;;-146.27;100.00;82631.28;5052762;28;20070;-69
2023/05/07 00:18:38;;;;;;;45.50;28.27;;;;;;;-146.27;100.00;82649.34;5063689;28;20028;-69
2023/05/07 00:21:04;;;;;;;48.08;27.90;;;;;;;-146.27;100.00;82645.34;5053984;28;20021;-69
2023/05/07 00:23:29;;;;;;;47.60;28.40;;;;;;;-146.27;100.00;82665.44;5052601;28;20129;-71
2023/05/07 00:25:55;;;;;;;49.83;27.40;;;;;;;-146.27;100.00;82619.22;5049064;28;20099;-69
2023/05/07 00:28:21;;;;;;;46.95;28.40;;;;;;;-146.27;100.00;82633.28;5055323;28;20067;-69
2023/05/07 00:30:46;;;;;;;44.90;27.23;;;;;;;-146.27;100.00;82639.31;5049218;28;20463;-70
2023/05/07 00:33:11;;;;;;;37.13;24.90;;;;;;;-146.27;100.00;82657.41;5045007;28;20385;-69
2023/05/07 00:35:37;;;;;;;52.92;27.98;;;;;;;-146.27;100.00;82649.34;5056085;28;20031;-69
2023/05/07 00:38:02;;;;;;;42.40;27.58;;;;;;;-146.27;100.00;82619.22;5052209;28;20032;-70
2023/05/07 00:40:27;;;;;;;42.35;27.83;;;;;;;-146.27;100.00;82609.19;5038295;28;20107;-70
2023/05/07 00:42:57;;;;;;;44.95;25.63;;;;;;;-146.27;100.00;82657.41;5052977;28;20024;-69
2023/05/07 00:45:26;;;;;;;44.15;27.00;;;;;;;-146.27;100.00;82631.28;5050346;28;20033;-69
2023/05/07 00:47:53;;;;;;;44.50;27.23;;;;;;;-146.27;100.00;82665.44;5055259;28;20108;-70
2023/05/07 00:50:19;;;;;;;44.60;26.67;;;;;;;-146.27;100.00;82627.25;5049637;28;20041;-69
2023/05/07 00:52:45;;;;;;;37.75;23.83;;;;;;;-146.27;100.00;82649.34;5035521;28;20423;-69
2023/05/07 00:55:11;;;;;;;40.47;25.27;;;;;;;-146.27;100.00;82633.28;5047933;28;20034;-70
2023/05/07 00:57:39;;;;;;;39.72;26.10;;;;;;;-146.27;100.00;82663.41;5054131;28;20021;-70
2023/05/07 01:00:05;;;;;;;52.35;27.38;;;;;;;-146.27;100.00;82637.31;5049781;28;20159;-69
2023/05/07 01:02:30;;;;;;;42.88;26.65;;;;;;;-146.27;100.00;82657.41;5049106;28;20021;-70
2023/05/07 01:04:56;;;;;;;44.63;27.73;;;;;;;-146.27;100.00;82661.41;5048836;28;20098;-69
2023/05/07 01:07:23;;;;;;;42.08;25.58;;;;;;;-146.27;100.00;82691.53;5050674;28;20417;-69
2023/05/07 01:09:49;;;;;;;45.20;26.42;;;;;;;-146.27;100.00;82641.31;5058462;28;20507;-69
2023/05/07 01:12:15;;;;;;;42.63;26.05;;;;;;;-146.27;100.00;82653.38;5050405;28;20100;-69
2023/05/07 01:14:40;;;;;;;43.95;26.48;;;;;;;-146.27;100.00;82641.31;5050347;28;20043;-70
2023/05/07 01:17:06;;;;;;;48.13;26.85;;;;;;;-146.27;100.00;82649.34;5049098;28;20485;-69
2023/05/07 01:19:31;;;;;;;43.92;25.77;;;;;;;-146.27;100.00;82657.41;5050495;28;20029;-69
2023/05/07 01:22:03;;;;;;;41.10;25.80;;;;;;;-146.27;100.00;82649.34;5041711;28;20396;-69
2023/05/07 01:24:29;;;;;;;43.15;26.58;;;;;;;-146.27;100.00;82665.44;5030410;28;20477;-69
2023/05/07 01:26:55;;;;;;;43.50;26.58;;;;;;;-146.27;100.00;82621.22;5052209;28;20058;-69
2023/05/07 01:29:20;;;;;;;46.45;28.48;;;;;;;-146.27;100.00;82665.44;5050353;28;20033;-69
2023/05/07 01:31:47;;;;;;;43.33;28.10;;;;;;;-146.27;100.00;82653.38;5045626;28;20425;-69
2023/05/07 01:34:15;;;;;;;47.90;26.23;;;;;;;-146.27;100.00;82711.63;5049893;28;20097;-70
2023/05/07 01:36:43;;;;;;;41.80;28.00;;;;;;;-146.27;100.00;82705.59;5038062;28;20438;-68
2023/05/07 01:39:10;;;;;;;46.90;27.65;;;;;;;-146.27;100.00;82693.56;5046596;28;20032;-70
2023/05/07 01:41:35;;;;;;;47.00;28.98;;;;;;;-146.27;100.00;82685.50;5048455;28;20076;-69
2023/05/07 01:44:02;;;;;;;45.47;26.58;;;;;;;-146.27;100.00;82669.44;5050137;28;20033;-69
2023/05/07 01:46:29;;;;;;;44.72;26.85;;;;;;;-146.27;100.00;82723.69;5044093;28;20511;-68
2023/05/07 01:48:55;;;;;;;44.42;26.48;;;;;;;-146.27;100.00;82713.66;5047067;28;20040;-69
2023/05/07 01:51:22;;;;;;;44.72;26.30;;;;;;;-146.27;100.00;82717.66;5051323;28;20031;-68
2023/05/07 01:53:50;;;;;;;45.83;26.00;;;;;;;-146.27;100.00;82717.66;5052795;28;20537;-68
2023/05/07 01:56:17;;;;;;;40.67;25.35;;;;;;;-146.27;100.00;82681.50;5039475;28;20582;-68
2023/05/07 01:58:45;;;;;;;44.05;25.38;;;;;;;-146.27;100.00;82727.72;5035902;28;20021;-69
2023/05/07 02:01:11;;;;;;;42.88;26.58;;;;;;;-146.27;100.00;82717.66;5036529;28;20033;-69
2023/05/07 02:03:36;;;;;;;42.03;26.40;;;;;;;-146.27;100.00;82717.66;5051925;28;20079;-68
2023/05/07 02:06:01;;;;;;;45.97;25.92;;;;;;;-146.27;100.00;82745.78;5051739;28;20078;-69
2023/05/07 02:08:27;;;;;;;44.97;25.20;;;;;;;-146.27;100.00;82685.50;5042182;28;20081;-69
2023/05/07 02:10:53;;;;;;;37.83;23.98;;;;;;;-146.27;100.00;82729.72;5044454;28;20485;-69
2023/05/07 02:13:19;;;;;;;37.28;24.52;;;;;;;-146.27;100.00;82711.63;5053316;28;20123;-69
2023/05/07 02:15:49;;;;;;;38.47;23.15;;;;;;;-146.27;100.00;82681.50;5050465;28;20021;-68
2023/05/07 02:18:15;;;;;;;40.80;24.48;;;;;;;-146.27;100.00;82653.38;5034434;28;20036;-68
2023/05/07 02:20:41;;;;;;;37.72;23.50;;;;;;;-146.27;100.00;82685.50;5033319;28;20021;-68
2023/05/07 02:23:06;;;;;;;37.97;24.27;;;;;;;-146.27;100.00;82713.66;5033391;28;20044;-67
2023/05/07 02:25:31;;;;;;;32.28;23.55;;;;;;;-146.27;100.00;82667.44;5033154;28;20025;-68
2023/05/07 02:27:57;;;;;;;36.97;23.42;;;;;;;-146.27;100.00;82675.47;5040917;28;20112;-68
2023/05/07 02:30:22;;;;;;;38.50;24.45;;;;;;;-146.27;100.00;82703.59;5036384;28;20030;-68
2023/05/07 02:32:47;;;;;;;41.17;24.20;;;;;;;-146.27;100.00;82725.69;5033586;28;20117;-68
2023/05/07 02:35:13;;;;;;;39.65;24.90;;;;;;;-146.27;100.00;82697.56;5037810;28;20090;-69
2023/05/07 02:37:38;;;;;;;35.95;24.30;;;;;;;-146.27;100.00;82713.66;5051070;28;20029;-69
2023/05/07 02:40:04;;;;;;;37.22;23.77;;;;;;;-146.27;100.00;82729.72;5053376;28;20483;-69
2023/05/07 02:42:30;;;;;;;39.88;24.52;;;;;;;-146.27;100.00;82713.66;5037146;28;20033;-69
2023/05/07 02:44:55;;;;;;;38.20;23.98;;;;;;;-146.27;100.00;82757.84;5047649;28;20048;-69
2023/05/07 02:47:20;;;;;;;42.08;24.45;;;;;;;-146.27;100.00;82711.63;5052177;28;20032;-69
2023/05/07 02:49:46;;;;;;;38.10;25.08;;;;;;;-146.27;100.00;82739.75;5048197;28;20515;-69
2023/05/07 02:52:11;;;;;;;38.83;24.08;;;;;;;-146.27;100.00;82693.56;5045351;28;20037;-70
2023/05/07 02:54:36;;;;;;;37.63;25.48;;;;;;;-146.27;100.00;82733.72;5053392;28;20033;-69
2023/05/07 02:57:03;;;;;;;39.08;24.75;;;;;;;-146.27;100.00;82822.13;5047943;28;20035;-69
2023/05/07 02:59:28;;;;;;;36.30;24.35;;;;;;;-146.27;100.00;82727.72;5033037;28;20049;-69
2023/05/07 03:01:53;;;;;;;38.67;24.90;;;;;;;-146.27;100.00;82717.66;5043805;28;20044;-69
2023/05/07 03:04:19;;;;;;;36.65;24.92;;;;;;;-146.27;100.00;82737.75;5041090;28;20026;-69
2023/05/07 03:06:44;;;;;;;39.38;24.70;;;;;;;-146.27;100.00;82747.78;5046891;28;20033;-69
2023/05/07 03:09:10;;;;;;;38.38;24.80;;;;;;;-146.27;100.00;82753.81;5043704;28;20576;-69
2023/05/07 03:11:35;;;;;;;36.28;24.40;;;;;;;-146.27;100.00;82721.69;5032862;28;20049;-68
2023/05/07 03:14:01;;;;;;;34.38;23.58;;;;;;;-146.27;100.00;82715.66;5043045;28;20052;-69
2023/05/07 03:16:26;;;;;;;33.33;24.02;;;;;;;-146.27;100.00;82767.88;5050951;28;20102;-69
2023/05/07 03:18:54;;;;;;;31.15;22.77;;;;;;;-146.27;100.00;82711.63;5053242;28;20028;-70
2023/05/07 03:21:20;;;;;;;33.63;22.83;;;;;;;-146.27;100.00;82745.78;5049722;28;20044;-69
2023/05/07 03:23:45;;;;;;;29.95;23.38;;;;;;;-146.27;100.00;82677.47;5046417;28;20104;-69
2023/05/07 03:26:10;;;;;;;33.08;23.08;;;;;;;-146.27;100.00;82725.69;5046557;28;20033;-68
2023/05/07 03:28:36;;;;;;;32.72;21.27;;;;;;;-146.27;100.00;82781.94;5048731;28;20024;-69
2023/05/07 03:31:02;;;;;;;29.55;22.05;;;;;;;-146.27;100.00;82683.50;5057242;28;20480;-69
2023/05/07 03:33:27;;;;;;;34.92;22.67;;;;;;;-146.27;100.00;82739.75;5044808;28;20017;-69
2023/05/07 03:35:53;;;;;;;31.40;22.77;;;;;;;-146.27;100.00;82775.91;5038316;28;20881;-69
2023/05/07 03:38:18;;;;;;;33.15;22.63;;;;;;;-146.27;100.00;82739.75;5037252;28;20100;-68
2023/05/07 03:40:43;;;;;;;31.42;23.05;;;;;;;-146.27;100.00;82749.81;5037163;28;20461;-69
2023/05/07 03:43:09;;;;;;;33.72;22.80;;;;;;;-146.27;100.00;82723.69;5051632;28;20472;-69
2023/05/07 03:45:35;;;;;;;29.58;23.17;;;;;;;-146.27;100.00;82723.69;5063743;28;20484;-70
2023/05/07 03:48:00;;;;;;;29.15;21.67;;;;;;;-146.27;100.00;82739.75;5033234;28;20104;-69
2023/05/07 03:50:25;;;;;;;34.10;22.17;;;;;;;-146.27;100.00;82721.69;5039781;28;20450;-69
2023/05/07 03:52:51;;;;;;;31.95;23.05;;;;;;;-146.27;100.00;82755.84;5051628;28;20037;-69
2023/05/07 03:55:16;;;;;;;36.95;22.42;;;;;;;-146.27;100.00;82745.78;5049034;28;20029;-68
2023/05/07 03:57:41;;;;;;;29.67;21.05;;;;;;;-146.27;100.00;82773.91;5041193;28;20035;-68
2023/05/07 04:00:07;;;;;;;32.90;21.67;;;;;;;-146.27;100.00;82731.72;5040161;28;20021;-70
2023/05/07 04:02:33;;;;;;;29.13;20.52;;;;;;;-146.27;100.00;82771.91;5046094;28;20063;-67
2023/05/07 04:04:58;;;;;;;29.83;21.75;;;;;;;-146.27;100.00;82749.81;5059613;28;20033;-68
2023/05/07 04:07:24;;;;;;;27.92;20.25;;;;;;;-146.27;100.00;82749.81;5051019;28;20550;-67
2023/05/07 04:09:49;;;;;;;31.05;19.67;;;;;;;-146.27;100.00;82753.81;5063949;28;20076;-69
2023/05/07 04:12:15;;;;;;;27.92;19.50;;;;;;;-146.27;100.00;82765.88;5047801;28;20024;-67
2023/05/07 04:14:40;;;;;;;29.27;20.27;;;;;;;-146.27;100.00;82769.91;5051015;28;20033;-70
2023/05/07 04:17:06;;;;;;;25.38;19.00;;;;;;;-146.27;100.00;82731.72;5051006;28;20503;-67
2023/05/07 04:19:33;;;;;;;25.20;19.25;;;;;;;-146.27;100.00;82733.72;5047036;28;20168;-69
2023/05/07 04:21:58;;;;;;;24.88;17.95;;;;;;;-146.27;100.00;82729.72;5050820;28;20032;-69
2023/05/07 04:24:23;;;;;;;24.38;18.08;;;;;;;-146.27;100.00;82757.84;5045466;28;20032;-69
2023/05/07 04:26:50;;;;;;;27.98;19.60;;;;;;;-146.27;100.00;82763.88;5042720;28;20029;-69
2023/05/07 04:29:16;;;;;;;27.20;18.85;;;;;;;-146.27;100.00;82751.81;5047313;28;20028;-69
2023/05/07 04:31:44;;;;;;;25.17;18.52;;;;;;;-146.27;100.00;82763.88;5049701;28;20108;-69
2023/05/07 04:34:10;;;;;;;23.30;18.02;;;;;;;-146.27;100.00;82765.88;5051484;28;20085;-68
2023/05/07 04:36:36;;;;;;;24.63;18.17;;;;;;;-146.27;100.00;82749.81;5037981;28;20069;-70
2023/05/07 04:39:02;;;;;;;25.50;18.48;;;;;;;-146.27;100.00;82773.91;5033608;28;20140;-70
2023/05/07 04:41:28;;;;;;;23.58;18.00;;;;;;;-146.27;100.00;82697.56;5049411;28;20111;-70
2023/05/07 04:43:53;;;;;;;25.70;18.20;;;;;;;-146.27;100.00;82733.72;5050057;28;20033;-70
2023/05/07 04:46:18;;;;;;;21.10;16.50;;;;;;;-146.27;100.00;82719.66;5050208;28;20024;-70
2023/05/07 04:48:44;;;;;;;22.08;17.10;;;;;;;-146.27;100.00;82741.78;5043593;28;20061;-70
2023/05/07 04:51:09;;;;;;;21.42;17.20;;;;;;;-146.27;100.00;82719.66;5029963;28;20071;-70
2023/05/07 04:53:34;;;;;;;22.95;15.95;;;;;;;-146.27;100.00;82739.75;5045520;28;20108;-70
2023/05/07 04:56:00;;;;;;;27.10;18.45;;;;;;;-146.27;100.00;82721.69;5055958;28;20029;-70
2023/05/07 04:58:25;;;;;;;22.83;18.27;;;;;;;-146.27;100.00;82715.66;5069843;28;20027;-70
2023/05/07 05:00:51;;;;;;;25.85;18.35;;;;;;;-146.27;100.00;82721.69;5049686;28;20435;-70
2023/05/07 05:03:17;;;;;;;25.25;17.00;;;;;;;-146.27;100.00;82735.75;5047661;28;20029;-70
2023/05/07 05:05:42;;;;;;;22.73;17.42;;;;;;;-146.27;100.00;82693.56;5055701;28;20082;-70
2023/05/07 05:08:07;;;;;;;26.30;18.20;;;;;;;-146.27;100.00;82721.69;5053355;28;20075;-70
2023/05/07 05:10:33;;;;;;;27.23;18.48;;;;;;;-146.27;100.00;82661.41;5056064;28;20021;-69
2023/05/07 05:12:58;;;;;;;25.02;17.98;;;;;;;-146.27;100.00;82673.47;5050144;28;20021;-70
2023/05/07 05:15:23;;;;;;;24.15;18.55;;;;;;;-146.27;100.00;82709.63;5051530;28;20116;-71
2023/05/07 05:17:48;;;;;;;26.77;18.98;;;;;;;-146.27;100.00;82717.66;5051882;28;20108;-70
2023/05/07 05:20:14;;;;;;;24.30;18.67;;;;;;;-146.27;100.00;82691.53;5046410;28;20024;-70
2023/05/07 05:22:41;;;;;;;25.60;18.80;;;;;;;-146.27;100.00;82693.56;5043188;28;20029;-73
2023/05/07 05:25:07;;;;;;;24.67;19.58;;;;;;;-146.27;100.00;82691.53;5047680;28;20060;-70
2023/05/07 05:27:32;;;;;;;24.67;19.10;;;;;;;-146.27;100.00;82717.66;5048038;28;20055;-70
2023/05/07 05:29:58;;;;;;;23.77;18.05;;;;;;;-146.27;100.00;82661.41;5053473;28;20024;-70
2023/05/07 05:32:23;;;;;;;24.98;19.38;;;;;;;-146.27;100.00;82665.44;5053091;28;20024;-69
2023/05/07 05:34:48;;;;;;;22.67;18.23;;;;;;;-146.27;100.00;82695.56;5053636;28;20136;-69
2023/05/07 05:37:14;;;;;;;24.80;18.63;;;;;;;-146.27;100.00;82661.41;5042017;28;20434;-69
2023/05/07 05:39:39;;;;;;;22.45;17.08;;;;;;;-146.27;100.00;82677.47;5039621;28;20473;-70
2023/05/07 05:42:04;;;;;;;27.85;18.20;;;;;;;-146.27;100.00;82637.31;5051650;28;20033;-70
2023/05/07 05:44:30;;;;;;;24.00;17.63;;;;;;;-146.27;100.00;82657.41;5062962;28;20206;-70
2023/05/07 05:46:57;;;;;;;23.15;17.92;;;;;;;-146.27;100.00;82677.47;5058765;28;20028;-70
2023/05/07 05:49:22;;;;;;;24.83;17.75;;;;;;;-146.27;100.00;82641.31;5073692;28;20032;-70
2023/05/07 05:51:48;;;;;;;23.65;18.00;;;;;;;-146.27;100.00;82661.41;5050853;28;20447;-70
2023/05/07 05:54:13;;;;;;;24.77;17.83;;;;;;;-146.27;100.00;82657.41;5042472;28;20052;-70
2023/05/07 05:56:38;;;;;;;24.65;18.40;;;;;;;-146.27;100.00;82611.19;5057173;28;20024;-70
2023/05/07 05:59:04;;;;;;;23.77;18.75;;;;;;;-146.27;100.00;82633.28;5052664;28;20032;-70
2023/05/07 06:01:29;;;;;;;23.00;18.80;;;;;;;-146.27;100.00;82623.25;5047333;28;20497;-70
2023/05/07 06:03:56;;;;;;;23.65;18.98;;;;;;;-146.27;100.00;82641.31;5034393;28;20064;-70
2023/05/07 06:06:21;;;;;;;24.38;18.08;;;;;;;-146.27;100.00;82641.31;5042031;28;20061;-70
2023/05/07 06:08:46;;;;;;;25.08;19.38;;;;;;;-146.27;100.00;82619.22;5036746;28;20568;-69
2023/05/07 06:11:12;;;;;;;26.60;18.73;;;;;;;-146.27;100.00;82637.31;5055219;28;20053;-71
2023/05/07 06:13:37;;;;;;;22.80;18.55;;;;;;;-146.27;100.00;82597.13;5053417;28;20381;-69
2023/05/07 06:16:03;;;;;;;26.08;19.20;;;;;;;-146.27;100.00;82571.00;5044148;28;20091;-71
2023/05/07 06:18:28;;;;;;;26.15;20.55;;;;;;;-146.27;100.00;82589.09;5058056;28;20025;-71
2023/05/07 06:20:53;;;;;;;25.90;20.10;;;;;;;-146.27;100.00;82589.09;5054731;28;20501;-69
2023/05/07 06:23:19;;;;;;;27.17;20.27;;;;;;;-146.27;100.00;82552.94;5068009;28;20032;-70
2023/05/07 06:25:51;;;;;;;30.25;20.30;;;;;;;-146.27;100.00;82532.84;5054797;28;20036;-71
2023/05/07 06:28:16;;;;;;;26.65;19.15;;;;;;;-146.27;100.00;82589.09;5063991;28;20107;-69
2023/05/07 06:30:42;;;;;;;26.65;20.42;;;;;;;-146.27;100.00;82552.94;5041314;28;20100;-70
2023/05/07 06:33:07;;;;;;;25.02;19.50;;;;;;;-146.27;100.00;82526.81;5036381;28;20056;-70
2023/05/07 06:35:33;;;;;;;24.00;19.67;;;;;;;-146.27;100.00;82514.75;5036943;28;20032;-70
2023/05/07 06:37:58;;;;;;;31.58;20.48;;;;;;;-146.27;100.00;82518.78;5045295;28;20037;-70
2023/05/07 06:40:23;;;;;;;25.48;19.63;;;;;;;-146.27;100.00;82490.66;5040120;28;20024;-70
2023/05/07 06:42:49;;;;;;;26.63;20.20;;;;;;;-146.27;100.00;82472.56;5060811;28;20064;-69
2023/05/07 06:45:14;;;;;;;33.25;21.85;;;;;;;-146.27;100.00;82492.66;5048830;28;20026;-70
2023/05/07 06:47:39;;;;;;;32.20;20.50;;;;;;;-146.27;100.00;82488.66;5058542;28;20024;-70
2023/05/07 06:50:05;;;;;;;27.38;20.48;;;;;;;-146.27;100.00;82488.66;5057392;28;20460;-70
2023/05/07 06:52:31;;;;;;;30.85;20.58;;;;;;;-146.27;100.00;82476.59;5032528;28;20504;-69
2023/05/07 06:54:57;;;;;;;26.95;20.02;;;;;;;-146.27;100.00;82490.66;5045634;28;20064;-69
2023/05/07 06:57:23;;;;;;;28.08;20.52;;;;;;;-146.27;100.00;82466.56;5044484;28;20021;-70
2023/05/07 06:59:49;;;;;;;34.22;20.10;;;;;;;-146.27;100.00;82424.38;5052982;28;20025;-70
2023/05/07 07:02:14;;;;;;;25.17;19.60;;;;;;;-146.27;100.00;82444.44;5045800;28;20136;-72
2023/05/07 07:04:40;;;;;;;28.48;20.55;;;;;;;-146.27;100.00;82472.56;5034032;28;20025;-72
2023/05/07 07:07:05;;;;;;;25.42;18.63;;;;;;;-146.27;100.00;82466.56;5051500;28;20579;-71
2023/05/07 07:09:31;;;;;;;23.60;18.55;;;;;;;-146.27;100.00;82482.63;5052091;28;20041;-71
2023/05/07 07:11:56;;;;;;;26.25;17.83;;;;;;;-146.27;100.00;82460.53;5051501;28;20116;-71
2023/05/07 07:14:21;;;;;;;30.58;19.15;;;;;;;-146.27;100.00;82428.38;5048162;28;20072;-72
2023/05/07 07:16:47;;;;;;;23.30;18.48;;;;;;;-146.27;100.00;82422.34;5044024;28;20032;-72
2023/05/07 07:19:12;;;;;;;26.27;19.67;;;;;;;-146.27;100.00;82428.38;5049752;28;20047;-72
2023/05/07 07:21:37;;;;;;;23.80;18.10;;;;;;;-146.27;100.00;82436.41;5053239;28;20058;-73
2023/05/07 07:24:03;;;;;;;25.00;18.38;;;;;;;-146.27;100.00;82428.38;5054167;28;20068;-72
2023/05/07 07:26:28;;;;;;;28.55;17.25;;;;;;;-146.27;100.00;82412.31;5053744;28;20033;-72
2023/05/07 07:28:54;;;;;;;26.35;17.40;;;;;;;-146.27;100.00;82412.31;5056028;28;20028;-74
2023/05/07 07:31:19;;;;;;;22.45;17.20;;;;;;;-146.27;100.00;82364.09;5059256;28;20025;-73
2023/05/07 07:33:45;;;;;;;23.02;17.05;;;;;;;-146.27;100.00;82396.25;5054540;28;20230;-72
2023/05/07 07:36:13;;;;;;;26.60;16.35;;;;;;;-146.27;100.00;82344.00;5050188;28;20021;-71
2023/05/07 07:38:38;;;;;;;21.65;15.65;;;;;;;-146.27;100.00;82297.81;5052055;28;20021;-71
2023/05/07 07:41:04;;;;;;;21.38;16.35;;;;;;;-146.27;100.00;82283.75;5047175;28;20036;-70
2023/05/07 07:43:29;;;;;;;22.05;14.57;;;;;;;-146.27;100.00;82263.66;5033565;28;20056;-71
2023/05/07 07:45:55;;;;;;;20.73;15.85;;;;;;;-146.27;100.00;82233.53;5032124;28;20025;-71
2023/05/07 07:48:20;;;;;;;22.10;15.90;;;;;;;-146.27;100.00;82239.56;5043532;28;20066;-71
2023/05/07 07:50:49;;;;;;;21.35;14.93;;;;;;;-146.27;100.00;82219.47;5049654;28;20116;-72
2023/05/07 07:53:15;;;;;;;19.90;14.73;;;;;;;-146.27;100.00;82227.50;5049404;28;20024;-71
2023/05/07 07:55:40;;;;;;;21.73;15.50;;;;;;;-146.27;100.00;82235.53;5042924;28;20033;-72
2023/05/07 07:58:06;;;;;;;21.58;14.90;;;;;;;-146.27;100.00;82187.31;5035048;28;20108;-72
2023/05/07 08:00:31;;;;;;;16.15;13.45;;;;;;;-146.27;100.00;82177.28;5035813;28;20036;-71
2023/05/07 08:02:56;;;;;;;14.88;11.77;;;;;;;-146.27;100.00;82179.28;5046076;28;20044;-71
2023/05/07 08:05:25;;;;;;;16.27;11.90;;;;;;;-146.27;100.00;82139.13;5034152;28;20393;-71
2023/05/07 08:07:53;;;;;;;17.45;12.98;;;;;;;-146.27;100.00;82115.00;5035754;28;20033;-71
2023/05/07 08:10:22;;;;;;;18.58;12.52;;;;;;;-146.27;100.00;82086.91;5031233;28;20057;-72
2023/05/07 08:12:51;;;;;;;16.08;10.55;;;;;;;-146.27;100.00;82066.81;5045035;28;20052;-71
2023/05/07 08:15:17;;;;;;;14.10;10.77;;;;;;;-146.27;100.00;82024.63;5037061;28;20076;-71
2023/05/07 08:17:42;;;;;;;14.77;10.43;;;;;;;-146.27;100.00;82014.59;5042637;28;20488;-72
2023/05/07 08:20:08;;;;;;;14.45;8.82;;;;;;;-146.27;100.00;81966.38;5038826;28;20028;-71
2023/05/07 08:22:35;;;;;;;13.75;10.18;;;;;;;-146.27;100.00;81958.34;5049890;28;20548;-71
2023/05/07 08:25:01;;;;;;;13.50;10.32;;;;;;;-146.27;100.00;81944.28;5043307;28;20392;-71
2023/05/07 08:27:26;;;;;;;14.57;9.85;;;;;;;-146.27;100.00;81884.03;5031052;28;20029;-71
2023/05/07 08:29:51;;;;;;;13.88;10.27;;;;;;;-146.27;99.59;81855.91;5049273;28;20330;-71
2023/05/07 08:32:17;;;;;;;14.05;10.07;;;;;;;-146.27;98.82;81871.97;5049258;28;20032;-71
2023/05/07 08:34:42;;;;;;;15.30;9.68;;;;;;;-146.27;100.00;81827.78;5050175;28;20029;-71
2023/05/07 08:37:07;;;;;;;14.65;8.25;;;;;;;-146.27;97.87;81823.78;5050412;28;20029;-71
2023/05/07 08:39:33;;;;;;;14.30;10.07;;;;;;;-146.27;97.27;81863.94;5043921;28;20045;-71
2023/05/07 08:42:02;;;;;;;14.80;10.82;;;;;;;-146.27;98.28;81803.69;5050476;28;20031;-70
2023/05/07 08:44:28;;;;;;;18.50;11.63;;;;;;;-146.27;99.37;81771.53;5040441;28;20412;-76
2023/05/07 08:46:56;;;;;;;11.38;8.35;;;;;;;-146.27;98.06;81747.44;5043351;28;20500;-70
2023/05/07 08:49:21;;;;;;;9.70;7.25;;;;;;;-146.27;95.39;81705.28;5040979;28;20182;-71
2023/05/07 08:51:47;;;;;;;8.52;6.88;;;;;;;-146.27;93.83;81779.59;5045489;28;20472;-71
2023/05/07 08:54:16;;;;;;;13.60;8.10;;;;;;;-146.27;96.57;81733.38;5049350;28;20058;-71
2023/05/07 08:56:41;;;;;;;13.73;8.00;;;;;;;-146.27;95.62;81723.34;5039838;28;20474;-70
2023/05/07 08:59:06;;;;;;;7.25;6.15;;;;;;;-146.27;92.56;81713.31;5043849;28;20131;-70
2023/05/07 09:01:32;;;;;;;10.20;3.47;;;;;;;-146.27;91.11;81753.47;5037681;28;20038;-71
2023/05/07 09:03:57;;;;;;;9.10;5.65;;;;;;;-146.27;90.85;81747.44;5030847;28;20060;-71
2023/05/07 09:06:23;;;;;;;9.93;6.65;;;;;;;-146.27;92.50;81713.31;5030327;28;20107;-71
2023/05/07 09:08:53;;;;;;;13.90;9.02;;;;;;;-146.27;94.43;81703.25;5030079;28;20505;-70
2023/05/07 09:11:23;;;;;;;17.13;8.88;;;;;;;-146.27;96.22;81677.16;5049889;28;20045;-72
2023/05/07 09:13:52;;;;;;;13.95;9.23;;;;;;;-146.27;96.53;81693.22;5043329;28;20040;-73
2023/05/07 09:16:20;;;;;;;15.07;9.70;;;;;;;-146.27;97.12;81657.06;5036933;28;20109;-73
2023/05/07 09:18:47;;;;;;;13.68;8.65;;;;;;;-146.27;96.37;81616.91;5038581;28;20035;-73
2023/05/07 09:21:18;;;;;;;14.13;10.07;;;;;;;-146.27;93.89;81645.00;5035662;28;20049;-73
2023/05/07 09:23:44;;;;;;;17.13;10.68;;;;;;;-146.27;94.08;81622.91;5039731;28;20557;-73
2023/05/07 09:26:11;;;;;;;15.18;11.10;;;;;;;-146.27;93.62;81584.75;5040964;28;20111;-73
2023/05/07 09:28:41;;;;;;;15.00;11.00;;;;;;;-146.27;92.91;81572.72;5037072;28;20478;-73
2023/05/07 09:31:08;;;;;;;17.33;10.25;;;;;;;-146.27;93.19;81484.34;5034736;28;20256;-72
2023/05/07 09:33:33;;;;;;;11.73;8.63;;;;;;;-146.27;91.93;81426.09;5040683;28;20025;-73
2023/05/07 09:36:02;;;;;;;14.13;8.73;;;;;;;-146.27;90.48;81420.06;5035276;28;20512;-72
2023/05/07 09:38:28;;;;;;;13.13;7.50;;;;;;;-146.27;86.20;81377.91;5033637;28;20026;-72
2023/05/07 09:41:03;;;;;;;11.55;7.68;;;;;;;-146.27;84.22;81367.88;5046846;28;20128;-74
2023/05/07 09:43:33;;;;;;;11.60;6.03;;;;;;;-146.27;83.39;81472.28;5048795;28;20427;-74
2023/05/07 09:46:12;;;;;;;12.52;7.00;;;;;;;-146.27;84.15;81458.22;5050550;28;20025;-74
2023/05/07 09:48:39;;;;;;;11.65;8.00;;;;;;;-146.27;86.41;81420.06;5057881;28;20469;-74
2023/05/07 09:51:17;;;;;;;11.40;7.35;;;;;;;-146.27;85.52;81404.00;5054815;28;20040;-73
2023/05/07 09:53:45;;;;;;;12.63;7.80;;;;;;;-146.27;85.10;81397.97;5045223;28;20431;-72
2023/05/07 09:56:12;;;;;;;9.15;7.13;;;;;;;-146.27;84.83;81448.19;5056537;28;20091;-73
2023/05/07 09:58:41;;;;;;;14.52;8.73;;;;;;;-146.27;86.38;81406.03;5034275;28;20036;-73
2023/05/07 10:01:06;;;;;;;9.63;7.05;;;;;;;-146.27;86.13;81486.34;5044885;28;20025;-75
2023/05/07 10:03:34;;;;;;;11.50;8.35;;;;;;;-146.27;86.83;81506.44;5066396;28;20499;-73
2023/05/07 10:06:00;;;;;;;14.70;9.88;;;;;;;-146.27;87.36;81494.38;5050245;28;20128;-74
2023/05/07 10:08:27;;;;;;;11.13;8.68;;;;;;;-146.27;87.72;81530.53;5035783;28;20048;-73
2023/05/07 10:10:52;;;;;;;16.35;10.15;;;;;;;-146.27;88.05;81528.53;5031446;28;20065;-72
2023/05/07 10:13:20;;;;;;;28.52;9.35;;;;;;;-146.27;90.51;81500.41;5054666;28;20500;-74
2023/05/07 10:15:46;;;;;;;12.73;9.05;;;;;;;-146.27;91.27;81482.34;5049502;28;20051;-75
2023/05/07 10:18:13;;;;;;;13.15;9.38;;;;;;;-146.27;89.45;81530.53;5056302;28;20040;-70
2023/05/07 10:20:39;;;;;;;13.98;8.95;;;;;;;-146.27;87.84;81500.41;5037231;28;20111;-70
2023/05/07 10:23:06;;;;;;;15.15;8.10;;;;;;;-146.27;88.09;81476.31;5050854;28;20031;-69
2023/05/07 10:25:33;;;;;;;10.35;7.20;;;;;;;-146.27;87.51;81460.25;5047290;28;20606;-70
2023/05/07 10:28:05;;;;;;;10.50;7.00;;;;;;;-146.27;83.67;81404.00;5044795;28;20029;-70
2023/05/07 10:31:06;;;;;;;14.73;6.60;;;;;;;-146.27;82.03;81337.75;5055056;28;20090;-69
2023/05/07 10:33:32;;;;;;;14.07;6.50;;;;;;;-146.27;79.15;81315.66;5033038;28;20382;-69
2023/05/07 10:36:00;;;;;;;10.77;6.13;;;;;;;-146.27;82.87;81313.63;5053548;28;20020;-69
2023/05/07 10:38:27;;;;;;;10.65;5.47;;;;;;;-146.27;82.03;81269.47;5044432;28;20477;-69
2023/05/07 10:40:52;;;;;;;10.27;4.95;;;;;;;-146.27;80.94;81257.41;5056664;28;20060;-69
2023/05/07 10:43:18;;;;;;;10.73;6.97;;;;;;;-146.27;80.54;81279.50;5046346;28;20426;-69
2023/05/07 10:46:03;;;;;;;10.13;6.82;;;;;;;-146.27;80.27;81259.41;5066464;28;20028;-69
2023/05/07 10:48:30;;;;;;;14.50;7.47;;;;;;;-146.27;79.17;81259.41;5044931;28;20121;-69
2023/05/07 10:51:20;;;;;;;12.18;6.82;;;;;;;-146.27;78.87;81251.38;5059688;28;20032;-70
2023/05/07 10:53:45;;;;;;;11.27;6.65;;;;;;;-146.27;80.11;81215.22;5030889;28;20081;-70